Time;durP1;ratioP1;P1;durP2;ratioP2;P2;SDS_P1;SDS_P2;PMS_P1;PMS_P2;Temp;Humidity;BMP_temperature;BMP_pressure;BME280_temperature;BME280_humidity;BME280_pressure;Samples;Min_cycle;Max_cycle;Signal;HPM_P1;HPM_P2
2022/05/06 00:00:01;;;;;;;12.27;7.93;;;12.20;99.90;;;;;;4973930;28;20241;-85
2022/05/06 00:02:52;;;;;;;11.83;8.53;;;12.10;99.90;;;;;;4974036;28;20269;-87
2022/05/06 00:05:36;;;;;;;10.50;7.87;;;12.00;99.90;;;;;;4974398;28;20192;-85
2022/05/06 00:08:22;;;;;;;12.87;7.83;;;11.90;99.90;;;;;;4973033;28;20335;-85
2022/05/06 00:11:07;;;;;;;11.10;7.67;;;11.80;99.90;;;;;;4970559;28;20184;-86
2022/05/06 00:13:52;;;;;;;10.23;8.50;;;11.80;99.90;;;;;;4984517;28;20216;-84
2022/05/06 00:16:39;;;;;;;13.30;8.70;;;11.70;99.90;;;;;;4970746;28;20209;-84
2022/05/06 00:19:23;;;;;;;9.13;7.57;;;11.60;99.90;;;;;;4976325;28;20232;-85
2022/05/06 00:22:19;;;;;;;;;;;;;;;;;;;;;
2022/05/06 00:25:04;;;;;;;11.07;8.07;;;11.50;99.90;;;;;;4988712;28;20193;-84
2022/05/06 00:27:48;;;;;;;10.43;7.90;;;11.40;99.90;;;;;;4968879;28;20264;-84
2022/05/06 00:30:33;;;;;;;11.60;8.10;;;11.30;99.90;;;;;;4972442;28;20201;-85
2022/05/06 00:33:17;;;;;;;13.03;8.30;;;11.20;99.90;;;;;;4977918;28;20193;-85
2022/05/06 00:36:03;;;;;;;12.97;8.00;;;11.20;99.90;;;;;;4973644;28;20228;-86
2022/05/06 00:38:50;;;;;;;11.13;8.03;;;11.10;99.90;;;;;;4975193;28;20239;-84
2022/05/06 00:41:36;;;;;;;9.90;7.50;;;11.10;99.90;;;;;;4975090;23;20244;-84
2022/05/06 00:44:22;;;;;;;15.33;8.73;;;11.10;99.90;;;;;;4965264;28;20192;-83
2022/05/06 00:47:08;;;;;;;12.80;8.67;;;11.10;99.90;;;;;;4968124;28;20188;-84
2022/05/06 00:49:52;;;;;;;15.47;9.10;;;11.00;99.90;;;;;;4965640;28;20200;-83
2022/05/06 00:52:37;;;;;;;13.80;8.67;;;10.90;99.90;;;;;;4963622;28;20298;-83
2022/05/06 00:55:24;;;;;;;15.13;9.00;;;10.90;99.90;;;;;;4967572;28;20200;-83
2022/05/06 00:58:10;;;;;;;13.97;9.00;;;10.90;99.90;;;;;;4963363;28;20222;-82
2022/05/06 01:00:58;;;;;;;15.20;9.43;;;10.80;99.90;;;;;;4980353;28;20197;-81
2022/05/06 01:03:43;;;;;;;13.00;8.13;;;10.80;99.90;;;;;;4966501;28;20212;-81
2022/05/06 01:06:28;;;;;;;13.17;8.10;;;10.80;99.90;;;;;;4968773;28;20309;-81
2022/05/06 01:09:17;;;;;;;16.53;8.53;;;10.80;99.90;;;;;;4967286;28;20189;-79
2022/05/06 01:12:02;;;;;;;12.57;8.47;;;10.70;99.90;;;;;;4967530;28;20217;-83
2022/05/06 01:14:46;;;;;;;12.40;8.13;;;10.70;99.90;;;;;;4970252;28;20200;-83
2022/05/06 01:17:31;;;;;;;11.17;8.23;;;10.60;99.90;;;;;;4966383;28;20265;-83
2022/05/06 01:20:17;;;;;;;14.53;9.00;;;10.60;99.90;;;;;;4969343;28;20181;-84
2022/05/06 01:23:01;;;;;;;11.10;8.33;;;10.50;99.90;;;;;;4963568;28;20220;-82
2022/05/06 01:25:46;;;;;;;12.40;8.50;;;10.50;99.90;;;;;;4968160;28;20197;-82
2022/05/06 01:28:37;;;;;;;12.57;9.33;;;10.40;99.90;;;;;;4962264;28;20256;-82
2022/05/06 01:31:24;;;;;;;12.67;9.10;;;10.40;99.90;;;;;;4965296;28;20226;-83
2022/05/06 01:34:12;;;;;;;14.87;8.70;;;10.40;99.90;;;;;;4964474;28;20581;-84
2022/05/06 01:37:13;;;;;;;14.07;9.13;;;10.30;99.90;;;;;;4964201;28;20249;-83
2022/05/06 01:40:01;;;;;;;12.43;9.63;;;10.30;99.90;;;;;;4964257;28;20239;-82
2022/05/06 01:42:49;;;;;;;21.43;9.63;;;10.30;99.90;;;;;;4964701;28;20225;-82
2022/05/06 01:45:36;;;;;;;14.53;9.50;;;10.20;99.90;;;;;;4965948;28;20726;-82
2022/05/06 01:48:22;;;;;;;12.17;9.13;;;10.20;99.90;;;;;;4967009;28;20268;-83
2022/05/06 01:51:10;;;;;;;11.10;8.93;;;10.30;99.90;;;;;;4967618;28;20209;-84
2022/05/06 01:53:55;;;;;;;14.10;8.43;;;10.20;99.90;;;;;;4966285;28;20284;-82
2022/05/06 01:56:41;;;;;;;12.57;9.43;;;10.20;99.90;;;;;;4966500;28;20245;-81
2022/05/06 01:59:25;;;;;;;13.43;9.00;;;10.20;99.90;;;;;;4971581;28;20265;-82
2022/05/06 02:02:10;;;;;;;13.37;9.40;;;10.20;99.90;;;;;;4966443;28;20317;-83
2022/05/06 02:08:00;;;;;;;12.17;9.33;;;10.20;99.90;;;;;;4978552;28;20196;-82
2022/05/06 02:10:45;;;;;;;10.80;8.50;;;10.20;99.90;;;;;;4970140;28;20257;-82
2022/05/06 02:13:30;;;;;;;13.60;9.10;;;10.20;99.90;;;;;;4982009;28;20477;-82
2022/05/06 02:16:16;;;;;;;11.73;8.70;;;10.20;99.90;;;;;;4966482;28;22073;-82
2022/05/06 02:19:01;;;;;;;14.03;9.10;;;10.20;99.90;;;;;;4966710;28;20211;-82
2022/05/06 02:21:46;;;;;;;12.23;8.47;;;10.10;99.90;;;;;;4974702;28;20236;-81
2022/05/06 02:24:31;;;;;;;12.03;8.30;;;10.10;99.90;;;;;;4972669;28;20597;-80
2022/05/06 02:27:21;;;;;;;12.13;9.27;;;10.10;99.90;;;;;;4975018;28;20289;-80
2022/05/06 02:33:12;;;;;;;11.97;9.13;;;10.00;99.90;;;;;;4983756;28;20350;-81
2022/05/06 02:36:02;;;;;;;13.13;9.67;;;10.00;99.90;;;;;;4970547;28;20243;-82
2022/05/06 02:38:46;;;;;;;13.50;9.27;;;10.00;99.90;;;;;;4968869;28;20243;-84
2022/05/06 02:41:31;;;;;;;13.27;8.43;;;10.00;99.90;;;;;;4984704;28;20205;-82
2022/05/06 02:44:18;;;;;;;11.60;8.40;;;10.00;99.90;;;;;;4971808;28;20247;-81
2022/05/06 02:47:06;;;;;;;14.97;9.63;;;10.00;99.90;;;;;;4968762;28;20197;-81
2022/05/06 02:49:52;;;;;;;12.73;8.57;;;10.00;99.90;;;;;;4973782;28;20679;-80
2022/05/06 02:52:37;;;;;;;15.20;8.63;;;9.90;99.90;;;;;;4972052;28;20719;-80
2022/05/06 02:55:23;;;;;;;11.53;8.87;;;9.90;99.90;;;;;;4971234;28;20233;-81
2022/05/06 02:58:09;;;;;;;15.33;10.37;;;9.90;99.90;;;;;;4971328;28;20584;-81
2022/05/06 03:00:54;;;;;;;14.67;9.47;;;9.90;99.90;;;;;;4973791;28;20252;-81
2022/05/06 03:03:39;;;;;;;12.13;9.23;;;10.00;99.90;;;;;;4968755;28;20252;-81
2022/05/06 03:06:24;;;;;;;12.40;8.90;;;9.90;99.90;;;;;;4973855;28;20193;-81
2022/05/06 03:09:08;;;;;;;12.60;9.43;;;10.00;99.90;;;;;;4973424;28;20189;-81
2022/05/06 03:11:55;;;;;;;18.63;10.93;;;10.00;99.90;;;;;;4985109;28;20355;-80
2022/05/06 03:14:40;;;;;;;20.27;10.03;;;9.90;99.90;;;;;;4974057;28;21124;-81
2022/05/06 03:17:25;;;;;;;13.07;10.37;;;9.90;99.90;;;;;;4971240;28;20304;-81
2022/05/06 03:20:10;;;;;;;13.60;10.00;;;9.90;99.90;;;;;;4968358;28;20200;-81
2022/05/06 03:22:55;;;;;;;13.50;9.20;;;9.90;99.90;;;;;;4969783;28;20228;-82
2022/05/06 03:25:39;;;;;;;12.43;9.77;;;9.90;99.90;;;;;;4972620;28;20190;-80
2022/05/06 03:28:31;;;;;;;13.70;9.63;;;9.90;99.90;;;;;;4969042;28;20323;-82
2022/05/06 03:31:18;;;;;;;12.47;9.00;;;9.90;99.90;;;;;;4970296;28;20215;-81
2022/05/06 03:34:06;;;;;;;13.50;9.50;;;9.90;99.90;;;;;;4968233;28;20212;-82
2022/05/06 03:36:50;;;;;;;15.30;9.77;;;9.90;99.90;;;;;;4965262;28;20269;-81
2022/05/06 03:39:35;;;;;;;15.63;10.20;;;9.90;99.90;;;;;;4965053;28;20204;-82
2022/05/06 03:42:20;;;;;;;15.40;9.87;;;9.90;99.90;;;;;;4966324;28;20219;-81
2022/05/06 03:45:07;;;;;;;15.33;10.33;;;9.90;99.90;;;;;;4966513;28;20324;-82
2022/05/06 03:47:52;;;;;;;19.43;11.13;;;9.90;99.90;;;;;;4969281;28;20212;-83
2022/05/06 03:53:42;;;;;;;16.37;10.70;;;10.00;99.90;;;;;;4979193;28;20261;-81
2022/05/06 03:56:27;;;;;;;18.77;11.23;;;10.00;99.90;;;;;;4973355;28;20882;-81
2022/05/06 03:59:12;;;;;;;16.57;11.47;;;10.00;99.90;;;;;;4965974;28;20193;-81
2022/05/06 04:01:57;;;;;;;18.57;11.93;;;10.00;99.90;;;;;;4969941;28;20212;-82
2022/05/06 04:04:42;;;;;;;18.23;11.50;;;10.00;99.90;;;;;;4968754;28;20201;-81
2022/05/06 04:07:26;;;;;;;19.57;11.50;;;10.00;99.90;;;;;;4971332;28;20236;-82
2022/05/06 04:10:11;;;;;;;17.43;11.20;;;10.00;99.90;;;;;;4965618;28;20268;-83
2022/05/06 04:12:56;;;;;;;17.27;10.90;;;10.00;99.90;;;;;;4981555;28;20402;-82
2022/05/06 04:15:43;;;;;;;15.43;11.13;;;9.90;99.90;;;;;;4968793;28;20220;-82
2022/05/06 04:18:29;;;;;;;15.63;12.07;;;9.90;99.90;;;;;;4966018;28;20324;-82
2022/05/06 04:24:17;;;;;;;16.40;11.27;;;9.90;99.90;;;;;;4983414;28;20196;-82
2022/05/06 04:27:03;;;;;;;22.23;12.17;;;9.90;99.90;;;;;;4968232;28;20255;-81
2022/05/06 04:29:47;;;;;;;21.47;12.50;;;9.90;99.90;;;;;;4966680;28;20564;-82
2022/05/06 04:32:32;;;;;;;19.17;11.57;;;9.90;99.90;;;;;;4969976;28;20223;-82
2022/05/06 04:35:17;;;;;;;20.97;12.40;;;9.90;99.90;;;;;;4970940;28;20269;-84
2022/05/06 04:38:02;;;;;;;17.20;12.13;;;9.90;99.90;;;;;;4970613;28;20215;-81
2022/05/06 04:40:47;;;;;;;20.07;12.43;;;9.90;99.90;;;;;;4963989;28;20196;-82
2022/05/06 04:43:32;;;;;;;19.90;13.00;;;9.90;99.90;;;;;;4964105;28;20228;-82
2022/05/06 04:46:16;;;;;;;19.97;11.97;;;9.90;99.90;;;;;;4965787;28;20671;-83
2022/05/06 04:49:01;;;;;;;19.90;11.43;;;9.90;99.90;;;;;;4968785;28;20196;-82
2022/05/06 04:51:46;;;;;;;14.63;11.47;;;9.90;99.90;;;;;;4972051;28;20217;-81
2022/05/06 04:54:30;;;;;;;16.53;12.03;;;9.90;99.90;;;;;;4967427;28;20204;-82
2022/05/06 04:57:15;;;;;;;17.73;12.50;;;10.00;99.90;;;;;;4982115;28;20212;-83
2022/05/06 05:00:03;;;;;;;17.33;12.27;;;10.00;99.90;;;;;;4965558;28;20248;-82
2022/05/06 05:02:48;;;;;;;17.30;11.97;;;10.00;99.90;;;;;;4969031;28;20233;-84
2022/05/06 05:05:34;;;;;;;14.90;11.40;;;10.00;99.90;;;;;;4966671;28;20205;-80
2022/05/06 05:08:19;;;;;;;15.63;11.77;;;10.00;99.90;;;;;;4969821;28;20209;-83
2022/05/06 05:11:10;;;;;;;18.30;11.20;;;10.00;99.90;;;;;;4965975;28;20212;-82
2022/05/06 05:13:56;;;;;;;20.03;12.10;;;10.00;99.90;;;;;;4965361;28;20673;-81
2022/05/06 05:16:43;;;;;;;16.93;12.17;;;10.10;99.90;;;;;;4965437;28;20225;-77
2022/05/06 05:19:27;;;;;;;20.73;12.03;;;10.10;99.90;;;;;;4962599;28;20203;-78
2022/05/06 05:22:12;;;;;;;15.73;11.43;;;10.20;99.90;;;;;;4964038;28;20287;-78
2022/05/06 05:24:57;;;;;;;22.17;12.70;;;10.20;99.90;;;;;;4963787;28;20227;-78
2022/05/06 05:27:42;;;;;;;19.83;12.47;;;10.20;99.90;;;;;;4961533;28;20201;-80
2022/05/06 05:30:27;;;;;;;20.53;11.60;;;10.20;99.90;;;;;;4963894;28;20284;-81
2022/05/06 05:33:12;;;;;;;19.53;11.80;;;10.30;99.90;;;;;;4965731;28;20219;-80
2022/05/06 05:35:59;;;;;;;21.20;10.83;;;10.30;99.90;;;;;;4966653;28;20208;-85
2022/05/06 05:38:43;;;;;;;18.07;11.57;;;10.30;99.90;;;;;;4966689;28;20569;-80
2022/05/06 05:41:32;;;;;;;22.33;11.47;;;10.40;99.90;;;;;;4963277;28;20275;-81
2022/05/06 05:50:29;;;;;;;18.53;11.63;;;10.60;99.90;;;;;;4980073;28;20200;-83
2022/05/06 05:53:21;;;;;;;21.80;10.63;;;10.70;99.90;;;;;;4960425;28;20225;-83
2022/05/06 05:56:06;;;;;;;18.70;10.93;;;10.80;99.90;;;;;;4963262;28;20193;-79
2022/05/06 05:58:51;;;;;;;14.57;9.90;;;10.80;99.90;;;;;;4965523;28;20203;-80
2022/05/06 06:01:36;;;;;;;14.43;9.30;;;11.00;99.90;;;;;;4965978;28;20224;-83
2022/05/06 06:04:21;;;;;;;12.83;8.60;;;11.00;99.90;;;;;;4964985;28;20227;-79
2022/05/06 06:07:08;;;;;;;16.23;8.77;;;11.10;99.90;;;;;;4963965;28;20192;-82
2022/05/06 06:09:53;;;;;;;14.90;8.77;;;11.20;99.90;;;;;;4963385;28;20371;-80
2022/05/06 06:12:39;;;;;;;11.97;7.93;;;11.40;99.90;;;;;;4962544;28;20228;-81
2022/05/06 06:15:30;;;;;;;15.67;8.23;;;11.40;99.90;;;;;;4963787;28;20185;-88
2022/05/06 06:18:28;;;;;;;11.07;7.93;;;11.60;99.90;;;;;;4961832;28;20376;-88
2022/05/06 06:21:13;;;;;;;12.10;8.10;;;11.70;99.90;;;;;;4966748;28;20539;-87
2022/05/06 06:23:58;;;;;;;15.73;8.03;;;11.80;99.90;;;;;;4968590;28;20193;-83
2022/05/06 06:26:44;;;;;;;16.30;8.70;;;11.90;99.90;;;;;;4967255;28;20196;-87
2022/05/06 06:29:51;;;;;;;13.73;8.67;;;12.10;99.90;;;;;;4963826;28;20230;-88
2022/05/06 06:33:21;;;;;;;15.07;7.67;;;12.20;99.90;;;;;;4965456;28;20228;-88
2022/05/06 06:36:19;;;;;;;14.93;8.30;;;12.30;99.90;;;;;;4979093;28;20197;-87
2022/05/06 06:39:04;;;;;;;20.33;8.57;;;12.40;99.90;;;;;;4961855;28;20212;-88
2022/05/06 06:41:48;;;;;;;10.97;8.27;;;12.50;99.90;;;;;;4964879;28;20252;-88
2022/05/06 06:44:33;;;;;;;13.47;8.27;;;12.60;99.90;;;;;;4965548;28;20216;-88
2022/05/06 06:47:17;;;;;;;13.70;7.53;;;12.70;99.90;;;;;;4980471;28;20699;-88
2022/05/06 06:50:02;;;;;;;13.20;8.00;;;12.80;99.90;;;;;;4965430;28;20205;-87
2022/05/06 06:52:47;;;;;;;17.60;8.13;;;12.90;99.90;;;;;;4961059;28;20253;-88
2022/05/06 06:55:31;;;;;;;12.50;8.10;;;13.00;99.90;;;;;;4964603;28;20196;-87
2022/05/06 06:58:16;;;;;;;11.43;7.83;;;13.10;99.90;;;;;;4963606;28;20212;-78
2022/05/06 07:01:02;;;;;;;13.07;7.93;;;13.20;99.90;;;;;;4960796;28;20274;-75
2022/05/06 07:03:49;;;;;;;11.27;7.63;;;13.30;99.90;;;;;;4960243;28;20272;-75
2022/05/06 07:12:44;;;;;;;14.73;7.50;;;13.60;99.90;;;;;;4980050;28;20228;-80
2022/05/06 07:15:31;;;;;;;11.97;7.43;;;13.70;99.90;;;;;;4967095;28;20333;-79
2022/05/06 07:18:16;;;;;;;11.40;6.17;;;13.80;99.90;;;;;;4966032;28;20243;-79
2022/05/06 07:21:00;;;;;;;10.00;6.10;;;13.90;99.90;;;;;;4966810;28;20189;-79
2022/05/06 07:23:45;;;;;;;8.80;6.50;;;14.10;99.90;;;;;;4966010;28;20260;-79
2022/05/06 07:26:30;;;;;;;11.90;6.73;;;14.20;99.90;;;;;;4968321;28;20224;-79
2022/05/06 07:29:16;;;;;;;7.80;6.50;;;14.30;99.90;;;;;;4966584;28;20239;-79
2022/05/06 07:32:00;;;;;;;10.00;7.13;;;14.30;99.90;;;;;;4961925;28;20279;-79
2022/05/06 07:34:45;;;;;;;9.43;7.00;;;14.50;99.90;;;;;;4961541;28;20186;-80
2022/05/06 07:37:33;;;;;;;13.00;7.23;;;14.50;99.90;;;;;;4961251;28;20217;-80
2022/05/06 07:40:17;;;;;;;8.03;6.07;;;14.60;99.90;;;;;;4962261;28;20221;-79
2022/05/06 07:43:02;;;;;;;9.50;6.07;;;14.70;99.90;;;;;;4961578;28;20376;-79
2022/05/06 07:45:47;;;;;;;11.90;7.20;;;14.70;99.90;;;;;;4974827;28;20228;-79
2022/05/06 07:48:31;;;;;;;11.47;7.20;;;14.80;99.90;;;;;;4962768;28;20199;-79
2022/05/06 07:51:15;;;;;;;13.03;7.13;;;14.90;99.90;;;;;;4961511;28;20188;-79
2022/05/06 07:54:00;;;;;;;11.43;7.43;;;15.00;99.90;;;;;;4961476;28;20197;-79
2022/05/06 07:56:44;;;;;;;10.80;6.50;;;15.00;99.90;;;;;;4961719;28;20204;-79
2022/05/06 07:59:29;;;;;;;10.97;7.43;;;15.20;99.90;;;;;;4961622;28;20201;-79
2022/05/06 08:05:16;;;;;;;9.67;6.90;;;15.30;99.90;;;;;;4974645;28;20257;-79
2022/05/06 08:08:01;;;;;;;13.67;7.13;;;15.30;99.90;;;;;;4962360;28;20223;-79
2022/05/06 08:10:45;;;;;;;12.87;7.40;;;15.40;99.90;;;;;;4955387;28;20209;-79
2022/05/06 08:13:29;;;;;;;9.57;7.53;;;15.50;99.90;;;;;;4960327;28;20248;-79
2022/05/06 08:16:14;;;;;;;9.30;7.30;;;15.60;99.90;;;;;;4962288;28;20249;-79
2022/05/06 08:18:58;;;;;;;11.47;7.40;;;15.60;99.90;;;;;;4963067;28;20189;-79
2022/05/06 08:21:43;;;;;;;11.37;8.17;;;15.60;99.90;;;;;;4961135;28;20254;-79
2022/05/06 08:24:27;;;;;;;10.00;7.43;;;15.70;99.90;;;;;;4960460;28;20202;-79
2022/05/06 08:27:12;;;;;;;14.60;8.50;;;15.80;99.90;;;;;;4960388;28;20193;-78
2022/05/06 08:29:56;;;;;;;11.97;7.70;;;15.90;99.90;;;;;;4975583;28;20859;-78
2022/05/06 08:32:41;;;;;;;16.90;7.87;;;16.00;99.90;;;;;;4959738;28;20681;-79
2022/05/06 08:35:25;;;;;;;10.97;7.87;;;16.10;99.90;;;;;;4969375;28;20204;-79
2022/05/06 08:38:10;;;;;;;10.93;8.03;;;16.20;99.90;;;;;;4960881;28;20225;-79
2022/05/06 08:40:54;;;;;;;15.17;8.97;;;16.30;99.90;;;;;;4958852;28;20193;-78
2022/05/06 08:43:39;;;;;;;10.67;7.73;;;16.40;99.90;;;;;;4958097;28;20260;-78
2022/05/06 08:52:36;;;;;;;16.00;8.80;;;16.60;99.90;;;;;;4970874;28;20263;-79
2022/05/06 08:55:22;;;;;;;11.63;8.57;;;16.60;99.90;;;;;;4962213;28;20200;-78
2022/05/06 08:58:06;;;;;;;14.90;9.70;;;16.80;99.90;;;;;;4963583;28;20213;-78
2022/05/06 09:01:00;;;;;;;12.73;9.27;;;16.90;99.90;;;;;;4961945;28;20193;-78
2022/05/06 09:03:47;;;;;;;14.83;9.93;;;17.00;99.90;;;;;;4957788;28;20281;-84
2022/05/06 09:06:32;;;;;;;16.90;9.50;;;17.00;99.90;;;;;;4965014;28;20212;-83
2022/05/06 09:09:18;;;;;;;16.93;10.80;;;17.10;99.90;;;;;;4960673;28;20224;-82
2022/05/06 09:18:09;;;;;;;14.27;8.30;;;17.40;99.90;;;;;;4980388;28;20232;-87
2022/05/06 09:21:09;;;;;;;10.67;7.17;;;17.40;99.90;;;;;;4966783;28;20245;-83
2022/05/06 09:24:14;;;;;;;9.27;7.07;;;17.50;99.90;;;;;;4965082;28;20290;-84
2022/05/06 09:27:06;;;;;;;12.53;7.00;;;17.50;99.90;;;;;;4964467;28;20581;-87
2022/05/06 09:29:57;;;;;;;11.00;7.37;;;17.60;99.90;;;;;;4965059;28;20227;-84
2022/05/06 09:32:42;;;;;;;10.37;8.43;;;17.60;99.90;;;;;;4963705;28;20249;-88
2022/05/06 09:35:28;;;;;;;11.60;7.70;;;17.70;99.90;;;;;;4969733;28;20261;-86
2022/05/06 09:38:15;;;;;;;10.70;6.43;;;17.80;99.90;;;;;;4984429;28;20271;-84
2022/05/06 09:41:19;;;;;;;6.03;4.93;;;17.80;99.90;;;;;;4971700;28;20205;-86
2022/05/06 09:44:09;;;;;;;5.87;4.37;;;17.80;99.90;;;;;;4985056;28;20672;-87
2022/05/06 09:47:12;;;;;;;11.03;5.47;;;17.90;99.90;;;;;;4974032;28;20193;-86
2022/05/06 09:49:57;;;;;;;8.63;5.43;;;17.90;99.90;;;;;;4968376;28;20233;-84
2022/05/06 09:52:42;;;;;;;8.30;6.70;;;18.00;99.90;;;;;;4964180;28;20244;-84
2022/05/06 09:55:30;;;;;;;9.03;7.17;;;18.20;99.90;;;;;;4974356;28;20229;-82
2022/05/06 09:58:16;;;;;;;9.07;6.50;;;18.30;99.90;;;;;;4957949;28;20224;-82
2022/05/06 10:01:01;;;;;;;5.97;4.67;;;18.30;99.90;;;;;;4959915;28;20217;-85
2022/05/06 10:03:46;;;;;;;6.07;3.90;;;18.40;99.90;;;;;;4972252;28;20233;-86
2022/05/06 10:06:31;;;;;;;7.30;5.43;;;18.50;99.90;;;;;;4960585;28;20192;-84
2022/05/06 10:09:21;;;;;;;6.63;5.33;;;18.50;99.90;;;;;;4956863;28;20570;-85
2022/05/06 10:12:08;;;;;;;5.53;4.90;;;18.50;99.90;;;;;;4960974;28;20216;-83
2022/05/06 10:14:54;;;;;;;7.20;5.70;;;18.50;99.90;;;;;;4959141;28;20192;-85
2022/05/06 10:17:48;;;;;;;10.27;6.03;;;18.70;99.90;;;;;;4957951;28;20213;-83
2022/05/06 10:23:21;;;;;;;9.13;5.43;;;18.80;99.90;;;;;;4975637;28;20256;-80
2022/05/06 10:26:06;;;;;;;7.60;5.20;;;18.90;99.90;;;;;;4959541;28;20229;-86
2022/05/06 10:35:02;;;;;;;7.22;5.55;;;19.00;99.90;;;;;;4975764;28;20593;-85
2022/05/06 10:37:47;;;;;;;4.45;4.00;;;19.00;99.90;;;;;;4959980;28;20224;-85
2022/05/06 10:40:31;;;;;;;7.28;4.10;;;19.10;99.90;;;;;;4966061;28;20194;-85
2022/05/06 10:43:41;;;;;;;6.18;4.68;;;19.10;99.90;;;;;;4969738;28;20221;-84
2022/05/06 10:46:33;;;;;;;5.60;4.10;;;19.10;99.90;;;;;;4967783;28;20205;-85
2022/05/06 10:49:40;;;;;;;6.53;4.55;;;19.10;99.90;;;;;;4962306;28;20564;-85
2022/05/06 10:52:28;;;;;;;7.63;5.18;;;19.20;99.90;;;;;;4963527;28;20234;-85
2022/05/06 10:55:14;;;;;;;5.32;4.78;;;19.10;99.90;;;;;;4966977;28;20214;-85
2022/05/06 10:58:01;;;;;;;6.63;4.63;;;19.10;99.90;;;;;;4965698;28;20237;-86
2022/05/06 11:00:45;;;;;;;6.65;4.22;;;19.10;99.90;;;;;;4961153;28;20240;-86
2022/05/06 11:03:30;;;;;;;6.70;4.68;;;19.10;99.90;;;;;;4961749;28;20952;-81
2022/05/06 11:06:20;;;;;;;4.50;3.67;;;19.10;99.90;;;;;;4957800;28;20210;-76
2022/05/06 11:09:05;;;;;;;10.07;3.93;;;19.00;99.90;;;;;;4959876;28;20229;-77
2022/05/06 11:11:49;;;;;;;5.88;3.95;;;19.10;99.90;;;;;;4959382;28;20253;-76
2022/05/06 11:14:33;;;;;;;6.53;4.50;;;19.10;99.90;;;;;;4958057;28;20214;-76
2022/05/06 11:17:18;;;;;;;5.18;4.68;;;19.20;99.90;;;;;;4957776;28;21376;-76
2022/05/06 11:20:27;;;;;;;6.90;4.75;;;19.20;99.90;;;;;;4961653;28;20628;-76
2022/05/06 11:23:15;;;;;;;7.07;3.83;;;19.30;99.90;;;;;;4956290;28;20317;-77
2022/05/06 11:26:00;;;;;;;6.97;3.43;;;19.20;99.90;;;;;;4959385;28;20699;-76
2022/05/06 11:29:00;;;;;;;4.97;3.23;;;19.20;99.90;;;;;;4959163;28;20225;-77
2022/05/06 11:31:46;;;;;;;13.90;3.45;;;19.20;99.90;;;;;;4957553;28;20185;-76
2022/05/06 11:34:34;;;;;;;6.57;3.55;;;19.20;99.90;;;;;;4959446;28;20221;-76
2022/05/06 11:37:23;;;;;;;6.23;4.00;;;19.30;99.90;;;;;;4957131;28;20208;-76
2022/05/06 11:43:20;;;;;;;5.90;3.97;;;19.50;99.90;;;;;;4970155;28;20249;-76
2022/05/06 11:49:08;;;;;;;5.80;4.43;;;19.80;99.90;;;;;;4970001;28;20193;-76
2022/05/06 11:51:55;;;;;;;5.57;3.85;;;20.00;99.90;;;;;;4955783;28;20743;-76
2022/05/06 11:54:40;;;;;;;7.50;3.83;;;20.00;99.90;;;;;;4956361;28;20217;-76
2022/05/06 11:57:25;;;;;;;5.78;4.40;;;20.00;99.90;;;;;;4973676;28;20267;-76
2022/05/06 12:00:13;;;;;;;7.15;5.00;;;20.10;99.90;;;;;;4973898;28;20233;-77
2022/05/06 12:03:05;;;;;;;11.60;5.95;;;20.20;99.90;;;;;;4956371;28;20248;-77
2022/05/06 12:06:01;;;;;;;13.02;5.90;;;20.20;99.90;;;;;;4958287;28;20244;-76
2022/05/06 12:08:46;;;;;;;6.05;5.22;;;20.10;99.90;;;;;;4958419;28;20212;-76
2022/05/06 12:11:30;;;;;;;15.07;6.13;;;20.00;99.90;;;;;;4958094;28;20225;-76
2022/05/06 12:14:19;;;;;;;10.85;5.72;;;20.00;99.90;;;;;;4958638;28;20208;-77
2022/05/06 12:17:09;;;;;;;8.00;5.50;;;20.00;99.90;;;;;;4956725;28;20225;-77
2022/05/06 12:19:53;;;;;;;8.85;5.05;;;20.00;99.90;;;;;;4959320;28;20283;-77
2022/05/06 12:22:38;;;;;;;6.95;4.30;;;20.00;99.90;;;;;;4971924;28;20273;-77
2022/05/06 12:25:22;;;;;;;7.55;4.30;;;20.00;99.90;;;;;;4968043;28;20193;-77
2022/05/06 12:28:11;;;;;;;7.60;4.00;;;20.00;99.90;;;;;;4959984;28;20204;-77
2022/05/06 12:30:59;;;;;;;8.77;5.75;;;20.20;99.90;;;;;;4952786;28;21188;-76
2022/05/06 12:33:45;;;;;;;6.25;4.10;;;20.30;99.90;;;;;;4955562;28;20300;-76
2022/05/06 12:36:30;;;;;;;4.30;3.70;;;20.30;99.90;;;;;;4956453;28;20265;-77
2022/05/06 12:39:17;;;;;;;4.20;3.80;;;20.30;99.90;;;;;;4957667;28;20232;-77
2022/05/06 12:42:20;;;;;;;5.20;3.90;;;20.30;99.90;;;;;;4959433;28;20803;-76
2022/05/06 12:45:05;;;;;;;7.22;3.90;;;20.40;99.90;;;;;;4961209;28;20668;-76
2022/05/06 12:50:53;;;;;;;9.38;3.75;;;20.30;99.90;;;;;;4972843;28;20185;-78
2022/05/06 12:53:37;;;;;;;6.82;4.30;;;20.40;99.90;;;;;;4961049;28;20514;-77
2022/05/06 12:56:21;;;;;;;5.32;4.22;;;20.50;99.90;;;;;;4968554;28;20194;-77
2022/05/06 12:59:07;;;;;;;5.57;4.40;;;20.50;99.90;;;;;;4959073;28;20225;-77
2022/05/06 13:01:52;;;;;;;6.05;4.40;;;20.60;99.90;;;;;;4955746;28;20228;-78
2022/05/06 13:04:37;;;;;;;6.43;4.10;;;20.60;99.90;;;;;;4952839;28;20197;-77
2022/05/06 13:07:21;;;;;;;5.55;3.97;;;20.70;99.90;;;;;;4953972;28;20205;-78
2022/05/06 13:10:06;;;;;;;9.68;4.05;;;20.80;99.90;;;;;;4953709;28;20209;-77
2022/05/06 13:12:50;;;;;;;7.43;4.88;;;20.80;99.90;;;;;;4953900;28;20359;-77
2022/05/06 13:15:35;;;;;;;13.35;5.00;;;20.70;99.90;;;;;;4952646;28;20232;-77
2022/05/06 13:18:20;;;;;;;9.68;5.20;;;20.70;99.90;;;;;;4966108;28;20217;-77
2022/05/06 13:21:04;;;;;;;13.10;5.30;;;20.70;99.90;;;;;;4957590;28;20193;-77
2022/05/06 13:23:49;;;;;;;8.52;4.70;;;20.60;99.90;;;;;;4950286;28;20235;-77
2022/05/06 13:26:35;;;;;;;17.10;5.72;;;20.60;99.90;;;;;;4956603;28;20248;-77
2022/05/06 13:29:20;;;;;;;6.25;5.15;;;20.60;99.90;;;;;;4973347;28;20209;-78
2022/05/06 13:32:04;;;;;;;5.55;4.78;;;20.50;99.90;;;;;;4955800;28;20336;-77
2022/05/06 13:34:49;;;;;;;8.55;4.75;;;20.40;99.90;;;;;;4960232;28;20197;-77
2022/05/06 13:37:33;;;;;;;6.90;4.57;;;20.40;99.90;;;;;;4955508;28;20220;-77
2022/05/06 13:40:17;;;;;;;5.63;4.50;;;20.40;99.90;;;;;;4956788;28;20192;-78
2022/05/06 13:43:02;;;;;;;7.30;4.90;;;20.40;99.90;;;;;;4958132;28;20719;-77
2022/05/06 13:45:47;;;;;;;5.43;4.40;;;20.40;99.90;;;;;;4954521;28;20968;-77
2022/05/06 13:48:31;;;;;;;7.07;4.80;;;20.40;99.90;;;;;;4958905;28;20243;-78
2022/05/06 13:51:18;;;;;;;4.43;3.88;;;20.40;99.90;;;;;;4956855;28;20192;-77
2022/05/06 13:54:02;;;;;;;6.55;4.13;;;20.50;99.90;;;;;;4954386;28;20201;-77
2022/05/06 13:59:50;;;;;;;7.20;3.85;;;20.60;99.90;;;;;;4968007;28;20337;-77
2022/05/06 14:02:34;;;;;;;6.28;4.07;;;20.80;99.90;;;;;;4950409;28;20229;-77
2022/05/06 14:05:18;;;;;;;6.53;4.53;;;20.90;99.90;;;;;;4954740;28;20189;-77
2022/05/06 14:08:03;;;;;;;5.32;4.28;;;21.00;99.90;;;;;;4952263;28;20198;-77
2022/05/06 14:10:47;;;;;;;4.53;4.05;;;21.00;99.90;;;;;;4971763;28;20192;-78
2022/05/06 14:13:31;;;;;;;5.88;4.25;;;21.00;99.90;;;;;;4956620;28;20228;-77
2022/05/06 14:16:15;;;;;;;9.15;4.30;;;21.00;99.90;;;;;;4959912;28;20713;-78
2022/05/06 14:19:00;;;;;;;4.95;3.40;;;21.10;99.90;;;;;;4961186;28;20225;-78
2022/05/06 14:21:46;;;;;;;7.50;4.03;;;21.20;99.90;;;;;;4960895;28;20280;-77
2022/05/06 14:24:47;;;;;;;4.80;3.58;;;21.30;99.90;;;;;;4973671;28;20272;-87
2022/05/06 14:27:40;;;;;;;5.80;4.07;;;21.40;99.90;;;;;;4975605;28;20223;-80
2022/05/06 14:30:24;;;;;;;6.25;3.78;;;21.40;99.90;;;;;;4957835;28;20208;-77
2022/05/06 14:33:09;;;;;;;5.47;3.50;;;21.40;99.90;;;;;;4960099;28;20221;-77
2022/05/06 14:35:54;;;;;;;6.28;3.53;;;21.40;99.90;;;;;;4957787;28;20950;-77
2022/05/06 14:38:38;;;;;;;10.02;3.63;;;21.40;99.90;;;;;;4957055;28;20244;-77
2022/05/06 14:41:22;;;;;;;6.60;3.13;;;21.40;99.90;;;;;;4954045;28;20240;-77
2022/05/06 14:44:07;;;;;;;7.72;2.80;;;21.40;99.90;;;;;;4955833;28;20229;-77
2022/05/06 14:46:51;;;;;;;3.60;3.05;;;21.40;99.90;;;;;;4956016;28;20680;-77
2022/05/06 14:49:35;;;;;;;6.68;3.03;;;21.40;99.90;;;;;;4951887;28;20197;-78
2022/05/06 14:52:23;;;;;;;4.75;2.67;;;21.40;99.90;;;;;;4957110;28;20256;-77
2022/05/06 14:55:09;;;;;;;5.95;3.25;;;21.30;99.90;;;;;;4951641;28;20201;-77
2022/05/06 14:57:53;;;;;;;5.05;2.63;;;21.30;99.90;;;;;;4955704;28;20228;-77
2022/05/06 15:00:38;;;;;;;3.95;2.78;;;21.30;99.90;;;;;;4974097;28;20232;-77
2022/05/06 15:03:23;;;;;;;3.15;2.70;;;21.20;99.90;;;;;;4955572;28;20224;-77
2022/05/06 15:06:07;;;;;;;5.75;3.03;;;21.20;99.90;;;;;;4969257;28;20217;-77
2022/05/06 15:08:52;;;;;;;5.30;3.03;;;21.30;99.90;;;;;;4956201;28;20194;-77
2022/05/06 15:11:36;;;;;;;4.15;3.05;;;21.30;99.90;;;;;;4970074;28;20259;-77
2022/05/06 15:14:22;;;;;;;4.82;2.50;;;21.30;99.90;;;;;;4952179;28;20208;-77
2022/05/06 15:17:06;;;;;;;3.03;2.10;;;21.30;99.90;;;;;;4957740;28;20221;-77
2022/05/06 15:19:51;;;;;;;3.83;1.80;;;21.30;99.90;;;;;;4958118;28;20229;-77